createdAt,value
2024-04-24T00:00:09.946Z,100570.28
2024-04-24T00:02:37.238Z,100566.81
2024-04-24T00:05:05.827Z,100561.66
2024-04-24T00:07:32.951Z,100559.06
2024-04-24T00:09:59.945Z,100564.25
2024-04-24T00:12:26.772Z,100559.94
2024-04-24T00:14:53.590Z,100555.66
2024-04-24T00:17:20.464Z,100558.25
2024-04-24T00:19:47.399Z,100550.47
2024-04-24T00:22:14.405Z,100538.38
2024-04-24T00:24:41.238Z,100542.72
2024-04-24T00:27:08.005Z,100540.97
2024-04-24T00:29:34.769Z,100539.22
2024-04-24T00:32:06.935Z,100532.34
2024-04-24T00:34:34.367Z,100531.50
2024-04-24T00:37:01.312Z,100528.91
2024-04-24T00:39:28.244Z,100522.88
2024-04-24T00:41:55.371Z,100521.16
2024-04-24T00:44:22.277Z,100512.50
2024-04-24T00:46:50.725Z,100514.22
2024-04-24T00:49:19.354Z,100515.97
2024-04-24T00:51:47.425Z,100503.03
2024-04-24T00:54:14.750Z,100506.47
2024-04-24T00:56:42.210Z,100502.16
2024-04-24T00:59:09.316Z,100503.88
2024-04-24T01:01:36.285Z,100494.38
2024-04-24T01:04:03.227Z,100496.97
2024-04-24T01:06:30.086Z,100490.06
2024-04-24T01:08:57.100Z,100491.81
2024-04-24T01:11:24.117Z,100479.72
2024-04-24T01:13:51.330Z,100482.28
2024-04-24T01:16:21.555Z,100479.69
2024-04-24T01:18:56.151Z,100482.25
2024-04-24T01:21:34.391Z,100484.84
2024-04-24T01:24:14.101Z,100483.97
2024-04-24T01:26:43.477Z,100479.63
2024-04-24T01:29:10.314Z,100480.50
2024-04-24T01:31:37.210Z,100476.16
2024-04-24T01:34:04.030Z,100474.44
2024-04-24T01:36:30.946Z,100481.28
2024-04-24T01:38:58.089Z,100470.94
2024-04-24T01:41:25.082Z,100462.31
2024-04-24T01:43:51.894Z,100461.41
2024-04-24T01:46:18.667Z,100466.56
2024-04-24T01:48:45.543Z,100455.34
2024-04-24T01:51:12.361Z,100463.09
2024-04-24T01:53:39.174Z,100458.78
2024-04-24T01:56:06.112Z,100454.47
2024-04-24T01:58:32.939Z,100448.44
2024-04-24T02:00:59.794Z,100444.09
2024-04-24T02:03:26.601Z,100440.63
2024-04-24T02:05:53.359Z,100447.50
2024-04-24T02:08:20.235Z,100444.94
2024-04-24T02:10:47.141Z,100438.88
2024-04-24T02:13:13.926Z,100444.03
2024-04-24T02:15:40.703Z,100441.44
2024-04-24T02:18:07.901Z,100434.53
2024-04-24T02:20:35.638Z,100434.56
2024-04-24T02:23:06.693Z,100438.84
2024-04-24T02:25:38.033Z,100436.19
2024-04-24T02:28:09.020Z,100446.50
2024-04-24T02:30:35.852Z,100443.81
2024-04-24T02:33:03.414Z,100436.00
2024-04-24T02:35:30.516Z,100437.69
2024-04-24T02:37:57.391Z,100435.03
2024-04-24T02:40:24.254Z,100430.66
2024-04-24T02:42:51.018Z,100426.34
2024-04-24T02:45:17.846Z,100435.84
2024-04-24T02:47:44.715Z,100440.13
2024-04-24T02:50:11.610Z,100430.53
2024-04-24T02:52:38.458Z,100438.19
2024-04-24T02:55:05.786Z,100436.44
2024-04-24T02:57:35.562Z,100432.97
2024-04-24T03:00:02.479Z,100439.81
2024-04-24T03:02:29.420Z,100444.06
2024-04-24T03:04:56.306Z,100443.19
2024-04-24T03:07:23.145Z,100444.84
2024-04-24T03:09:50.030Z,100443.06
2024-04-24T03:12:17.667Z,100436.97
2024-04-24T03:14:47.024Z,100441.19
2024-04-24T03:17:14.091Z,100442.00
2024-04-24T03:19:40.933Z,100441.91
2024-04-24T03:22:07.816Z,100435.00
2024-04-24T03:24:34.615Z,100444.44
2024-04-24T03:27:01.386Z,100443.47
2024-04-24T03:29:28.401Z,100445.16
2024-04-24T03:31:55.298Z,100433.91
2024-04-24T03:34:23.415Z,100443.38
2024-04-24T03:36:50.536Z,100436.47
2024-04-24T03:39:17.802Z,100443.31
2024-04-24T03:41:44.555Z,100449.25
2024-04-24T03:44:11.354Z,100430.25
2024-04-24T03:46:40.379Z,100444.06
2024-04-24T03:49:07.147Z,100443.16
2024-04-24T03:51:33.946Z,100441.38
2024-04-24T03:54:00.790Z,100434.47
2024-04-24T03:56:27.675Z,100441.41
2024-04-24T03:58:54.552Z,100439.63
2024-04-24T04:01:21.803Z,100440.50
2024-04-24T04:03:48.732Z,100424.16
2024-04-24T04:06:15.535Z,100426.69
2024-04-24T04:08:42.320Z,100424.13
2024-04-24T04:11:09.368Z,100421.53
2024-04-24T04:13:36.187Z,100413.81
2024-04-24T04:16:03.032Z,100412.94
2024-04-24T04:18:29.929Z,100414.66
2024-04-24T04:20:56.980Z,100412.03
2024-04-24T04:23:23.836Z,100401.66
2024-04-24T04:25:50.746Z,100408.53
2024-04-24T04:28:17.620Z,100407.66
2024-04-24T04:30:44.468Z,100401.63
2024-04-24T04:33:11.355Z,100401.59
2024-04-24T04:35:38.179Z,100399.00
2024-04-24T04:38:05.036Z,100382.66
2024-04-24T04:40:31.815Z,100391.28
2024-04-24T04:42:58.613Z,100386.97
2024-04-24T04:45:25.499Z,100398.13
2024-04-24T04:47:52.374Z,100389.53
2024-04-24T04:50:19.357Z,100389.53
2024-04-24T04:52:46.196Z,100386.03
2024-04-24T04:55:14.146Z,100389.44
2024-04-24T04:57:40.894Z,100380.03
2024-04-24T05:00:08.287Z,100377.44
2024-04-24T05:02:37.272Z,100375.72
2024-04-24T05:05:04.317Z,100366.28
2024-04-24T05:07:31.226Z,100375.75
2024-04-24T05:09:58.027Z,100369.69
2024-04-24T05:12:24.786Z,100357.66
2024-04-24T05:14:52.905Z,100355.94
2024-04-24T05:17:19.800Z,100355.09
2024-04-24T05:19:46.740Z,100356.81
2024-04-24T05:22:13.575Z,100357.72
2024-04-24T05:24:40.460Z,100365.44
2024-04-24T05:27:26.108Z,100375.78
2024-04-24T05:29:52.901Z,100383.50
2024-04-24T05:32:19.722Z,100380.03
2024-04-24T05:34:46.579Z,100380.88
2024-04-24T05:37:13.834Z,100366.28
2024-04-24T05:39:40.747Z,100371.44
2024-04-24T05:42:07.557Z,100368.00
2024-04-24T05:44:35.624Z,100369.75
2024-04-24T05:47:04.513Z,100366.34
2024-04-24T05:49:31.347Z,100367.19
2024-04-24T05:51:58.195Z,100368.06
2024-04-24T05:54:25.083Z,100368.13
2024-04-24T05:56:51.863Z,100369.00
2024-04-24T05:59:18.702Z,100361.28
2024-04-24T06:01:45.611Z,100361.25
2024-04-24T06:04:12.593Z,100360.44
2024-04-24T06:06:39.428Z,100366.44
2024-04-24T06:09:06.275Z,100369.91
2024-04-24T06:11:33.256Z,100360.47
2024-04-24T06:14:00.112Z,100372.53
2024-04-24T06:16:26.946Z,100361.41
2024-04-24T06:18:54.227Z,100361.44
2024-04-24T06:21:21.054Z,100358.03
2024-04-24T06:23:48.051Z,100353.78
2024-04-24T06:26:14.929Z,100346.13
2024-04-24T06:28:41.769Z,100341.88
2024-04-24T06:31:08.579Z,100347.09
2024-04-24T06:33:36.236Z,100350.59
2024-04-24T06:36:06.813Z,100358.34
2024-04-24T06:38:33.741Z,100349.66
2024-04-24T06:41:00.650Z,100342.69
2024-04-24T06:43:27.469Z,100353.03
2024-04-24T06:45:54.418Z,100355.59
2024-04-24T06:48:21.299Z,100344.41
2024-04-24T06:50:48.133Z,100351.28
2024-04-24T06:53:14.996Z,100350.41
2024-04-24T06:55:45.617Z,100367.59
2024-04-24T06:58:12.740Z,100356.53
2024-04-24T07:00:39.773Z,100360.09
2024-04-24T07:03:07.414Z,100358.34
2024-04-24T07:05:35.791Z,100360.00
2024-04-24T07:08:04.621Z,100362.59
2024-04-24T07:10:31.592Z,100357.59
2024-04-24T07:12:58.600Z,100360.25
2024-04-24T07:15:26.541Z,100361.97
2024-04-24T07:17:53.447Z,100355.84
2024-04-24T07:20:20.419Z,100362.78
2024-04-24T07:22:47.326Z,100359.34
2024-04-24T07:25:15.697Z,100350.72
2024-04-24T07:27:42.556Z,100343.97
2024-04-24T07:30:09.809Z,100352.63
2024-04-24T07:32:36.983Z,100354.34
2024-04-24T07:35:05.359Z,100348.38
2024-04-24T07:37:33.563Z,100345.03
2024-04-24T07:40:01.165Z,100352.84
2024-04-24T07:42:28.425Z,100351.16
2024-04-24T07:44:55.499Z,100352.97
2024-04-24T07:47:22.766Z,100346.94
2024-04-24T07:49:50.117Z,100346.94
2024-04-24T07:52:17.051Z,100343.41
2024-04-24T07:54:44.028Z,100353.03
2024-04-24T07:57:11.026Z,100345.31
2024-04-24T07:59:37.952Z,100349.66
2024-04-24T08:02:05.130Z,100361.72
2024-04-24T08:04:32.186Z,100351.41
2024-04-24T08:06:59.055Z,100351.44
2024-04-24T08:09:26.020Z,100354.00
2024-04-24T08:11:53.041Z,100356.59
2024-04-24T08:14:20.415Z,100348.03
2024-04-24T08:16:47.411Z,100353.25
2024-04-24T08:19:14.230Z,100343.81
2024-04-24T08:21:40.981Z,100348.09
2024-04-24T08:24:07.950Z,100338.63
2024-04-24T08:26:34.833Z,100338.66
2024-04-24T08:29:02.544Z,100342.09
2024-04-24T08:31:29.350Z,100339.47
2024-04-24T08:33:56.351Z,100341.19
2024-04-24T08:36:23.612Z,100330.84
2024-04-24T08:38:52.035Z,100331.78
2024-04-24T08:41:19.439Z,100347.38
2024-04-24T08:43:48.478Z,100333.53
2024-04-24T08:46:16.288Z,100335.28
2024-04-24T08:48:46.553Z,100341.34
2024-04-24T08:51:15.110Z,100332.78
2024-04-24T08:53:50.137Z,100328.53
2024-04-24T08:56:20.299Z,100331.16
2024-04-24T08:58:52.046Z,100333.81
2024-04-24T09:01:24.143Z,100333.81
2024-04-24T09:03:58.972Z,100321.75
2024-04-24T09:06:26.589Z,100327.84
2024-04-24T09:08:55.928Z,100320.09
2024-04-24T09:11:23.615Z,100328.78
2024-04-24T09:13:50.821Z,100321.88
2024-04-24T09:16:20.617Z,100320.19
2024-04-24T09:19:02.086Z,100314.09
2024-04-24T09:21:32.937Z,100321.91
2024-04-24T09:24:00.179Z,100321.94
2024-04-24T09:26:27.960Z,100322.81
2024-04-24T09:28:55.267Z,100315.88
2024-04-24T09:31:23.667Z,100312.44
2024-04-24T09:33:51.914Z,100310.69
2024-04-24T09:36:19.013Z,100308.97
2024-04-24T09:38:46.803Z,100313.31
2024-04-24T09:41:13.949Z,100299.53
2024-04-24T09:43:40.900Z,100294.34
2024-04-24T09:46:07.797Z,100303.03
2024-04-24T09:48:35.838Z,100303.91
2024-04-24T09:51:02.717Z,100296.13
2024-04-24T09:53:29.701Z,100291.81
2024-04-24T09:56:03.332Z,100300.47
2024-04-24T09:58:36.178Z,100293.56
2024-04-24T10:01:04.727Z,100280.63
2024-04-24T10:03:36.801Z,100289.28
2024-04-24T10:06:06.460Z,100290.16
2024-04-24T10:08:34.788Z,100282.38
2024-04-24T10:11:08.903Z,100285.81
2024-04-24T10:13:39.040Z,100281.50
2024-04-24T10:16:06.520Z,100280.63
2024-04-24T10:18:36.254Z,100266.81
2024-04-24T10:21:04.872Z,100265.94
2024-04-24T10:23:32.461Z,100272.00
2024-04-24T10:26:01.026Z,100265.94
2024-04-24T10:28:29.167Z,100262.50
2024-04-24T10:30:58.976Z,100263.34
2024-04-24T10:33:26.944Z,100264.22
2024-04-24T10:35:54.252Z,100260.75
2024-04-24T10:38:21.095Z,100254.72
2024-04-24T10:40:50.548Z,100256.44
2024-04-24T10:43:17.911Z,100259.03
2024-04-24T10:45:45.211Z,100250.38
2024-04-24T10:48:13.751Z,100258.16
2024-04-24T10:50:42.134Z,100251.25
2024-04-24T10:53:13.871Z,100236.56
2024-04-24T10:55:52.935Z,100244.31
2024-04-24T10:58:23.940Z,100228.75
2024-04-24T11:00:50.890Z,100230.44
2024-04-24T11:03:19.061Z,100234.72
2024-04-24T11:05:46.244Z,100226.94
2024-04-24T11:08:20.120Z,100226.06
2024-04-24T11:10:54.500Z,100217.44
2024-04-24T11:13:21.476Z,100218.31
2024-04-24T11:15:54.893Z,100227.84
2024-04-24T11:18:29.261Z,100219.22
2024-04-24T11:20:56.256Z,100220.09
2024-04-24T11:23:23.140Z,100214.00
2024-04-24T11:25:59.382Z,100208.78
2024-04-24T11:28:28.025Z,100200.03
2024-04-24T11:30:55.216Z,100200.94
2024-04-24T11:33:23.611Z,100210.44
2024-04-24T11:35:51.581Z,100202.63
2024-04-24T11:38:18.472Z,100207.84
2024-04-24T11:40:45.483Z,100193.13
2024-04-24T11:43:12.487Z,100199.19
2024-04-24T11:45:39.418Z,100200.09
2024-04-24T11:48:07.941Z,100200.06
2024-04-24T11:50:36.038Z,100201.78
2024-04-24T11:53:05.810Z,100206.09
2024-04-24T11:55:36.871Z,100196.53
2024-04-24T11:58:12.939Z,100190.44
2024-04-24T12:00:41.683Z,100187.81
2024-04-24T12:03:10.518Z,100185.16
2024-04-24T12:05:37.631Z,100190.34
2024-04-24T12:08:04.954Z,100188.56
2024-04-24T12:10:31.856Z,100184.19
2024-04-24T12:13:00.756Z,100179.03
2024-04-24T12:15:27.551Z,100184.19
2024-04-24T12:17:54.486Z,100179.88
2024-04-24T12:20:21.375Z,100173.81
2024-04-24T12:22:48.405Z,100171.25
2024-04-24T12:25:15.767Z,100169.47
2024-04-24T12:27:42.773Z,100160.75
2024-04-24T12:30:09.748Z,100162.47
2024-04-24T12:32:36.867Z,100161.69
2024-04-24T12:35:03.877Z,100160.84
2024-04-24T12:37:34.072Z,100156.50
2024-04-24T12:40:02.213Z,100165.13
2024-04-24T12:42:29.042Z,100154.75
2024-04-24T12:44:55.810Z,100155.63
2024-04-24T12:47:22.825Z,100146.94
2024-04-24T12:49:49.715Z,100147.75
2024-04-24T12:52:16.506Z,100146.94
2024-04-24T12:54:43.268Z,100140.84
2024-04-24T12:57:10.069Z,100147.78
2024-04-24T12:59:36.947Z,100136.47
2024-04-24T13:02:03.811Z,100135.59
2024-04-24T13:04:30.694Z,100147.72
2024-04-24T13:06:58.989Z,100133.03
2024-04-24T13:09:25.933Z,100126.94
2024-04-24T13:11:52.914Z,100123.44
2024-04-24T13:14:19.730Z,100126.88
2024-04-24T13:16:46.790Z,100125.13
2024-04-24T13:19:13.753Z,100131.19
2024-04-24T13:21:40.667Z,100126.03
2024-04-24T13:24:08.958Z,100120.88
2024-04-24T13:26:36.100Z,100131.25
2024-04-24T13:29:03.169Z,100126.09
2024-04-24T13:31:29.975Z,100125.28
2024-04-24T13:33:56.955Z,100122.75
2024-04-24T13:36:23.838Z,100116.66
2024-04-24T13:38:53.300Z,100127.81
2024-04-24T13:41:21.512Z,100123.47
2024-04-24T13:43:53.954Z,100117.41
2024-04-24T13:46:20.951Z,100124.34
2024-04-24T13:48:48.812Z,100111.31
2024-04-24T13:51:15.836Z,100113.94
2024-04-24T13:53:42.719Z,100114.84
2024-04-24T13:56:09.646Z,100115.59
2024-04-24T13:58:38.137Z,100106.09
2024-04-24T14:01:05.228Z,100100.94
2024-04-24T14:03:32.390Z,100108.75
2024-04-24T14:06:01.378Z,100110.50
2024-04-24T14:08:28.763Z,100104.41
2024-04-24T14:10:56.299Z,100106.06
2024-04-24T14:13:23.139Z,100101.69
2024-04-24T14:15:51.388Z,100092.13
2024-04-24T14:18:18.244Z,100092.03
2024-04-24T14:20:45.001Z,100095.41
2024-04-24T14:23:11.821Z,100086.75
2024-04-24T14:25:38.642Z,100087.69
2024-04-24T14:28:05.857Z,100087.69
2024-04-24T14:30:32.650Z,100085.94
2024-04-24T14:32:59.555Z,100079.94
2024-04-24T14:35:26.561Z,100079.97
2024-04-24T14:37:53.993Z,100075.59
2024-04-24T14:40:20.859Z,100073.84
2024-04-24T14:42:49.007Z,100070.28
2024-04-24T14:45:15.921Z,100065.06
2024-04-24T14:47:42.859Z,100064.19
2024-04-24T14:50:10.912Z,100058.13
2024-04-24T14:52:38.189Z,100061.63
2024-04-24T14:55:06.002Z,100050.38
2024-04-24T14:57:32.819Z,100058.22
2024-04-24T14:59:59.570Z,100054.78
2024-04-24T15:02:26.499Z,100050.56
2024-04-24T15:04:53.548Z,100045.41
2024-04-24T15:07:20.509Z,100037.63
2024-04-24T15:09:47.369Z,100041.09
2024-04-24T15:12:15.195Z,100033.28
2024-04-24T15:14:42.233Z,100021.00
2024-04-24T15:17:09.158Z,100023.53
2024-04-24T15:19:36.358Z,100025.09
2024-04-24T15:22:03.414Z,100022.44
2024-04-24T15:24:30.438Z,100019.91
2024-04-24T15:26:57.251Z,100013.03
2024-04-24T15:29:24.196Z,100004.47
2024-04-24T15:31:51.028Z,100013.16
2024-04-24T15:34:18.384Z,100007.91
2024-04-24T15:36:45.262Z,100005.31
2024-04-24T15:39:12.747Z,100009.59
2024-04-24T15:41:39.992Z,100002.66
2024-04-24T15:44:06.920Z,100008.69
2024-04-24T15:46:33.773Z,99998.41
2024-04-24T15:49:00.623Z,99998.44
2024-04-24T15:51:27.526Z,99998.44
2024-04-24T15:53:54.770Z,99994.16
2024-04-24T15:56:21.644Z,99982.88
2024-04-24T15:58:48.598Z,99994.09
2024-04-24T16:01:16.821Z,99986.38
2024-04-24T16:03:43.668Z,99979.44
2024-04-24T16:06:10.546Z,99976.84
2024-04-24T16:08:37.636Z,99976.88
2024-04-24T16:11:05.053Z,99970.84
2024-04-24T16:13:32.067Z,99967.41
2024-04-24T16:15:58.899Z,99969.97
2024-04-24T16:18:32.663Z,99963.84
2024-04-24T16:21:03.471Z,99958.75
2024-04-24T16:23:30.421Z,99959.63
2024-04-24T16:25:57.417Z,99957.09
2024-04-24T16:28:24.314Z,99950.19
2024-04-24T16:30:51.140Z,99945.88
2024-04-24T16:33:18.100Z,99950.25
2024-04-24T16:35:44.949Z,99945.91
2024-04-24T16:38:11.710Z,99946.75
2024-04-24T16:40:40.530Z,99946.72
2024-04-24T16:43:07.407Z,99941.56
2024-04-24T16:45:34.619Z,99936.34
2024-04-24T16:48:01.644Z,99930.28
2024-04-24T16:50:28.651Z,99932.88
2024-04-24T16:52:55.489Z,99929.47
2024-04-24T16:55:23.017Z,99926.91
2024-04-24T16:57:49.828Z,99932.06
2024-04-24T17:00:16.945Z,99925.94
2024-04-24T17:02:43.903Z,99923.34
2024-04-24T17:05:11.320Z,99930.28
2024-04-24T17:07:38.205Z,99932.00
2024-04-24T17:10:05.408Z,99922.56
2024-04-24T17:12:32.226Z,99919.16
2024-04-24T17:14:59.228Z,99921.72
2024-04-24T17:17:26.205Z,99915.63
2024-04-24T17:19:53.091Z,99913.94
2024-04-24T17:22:19.902Z,99913.16
2024-04-24T17:24:47.683Z,99910.63
2024-04-24T17:27:17.500Z,99912.41
2024-04-24T17:29:44.969Z,99908.13
2024-04-24T17:32:11.877Z,99910.72
2024-04-24T17:34:39.007Z,99910.75
2024-04-24T17:37:05.908Z,99909.97
2024-04-24T17:39:32.789Z,99904.78
2024-04-24T17:42:00.972Z,99901.38
2024-04-24T17:44:30.804Z,99899.59
2024-04-24T17:46:57.711Z,99909.94
2024-04-24T17:49:24.528Z,99901.28
2024-04-24T17:51:51.293Z,99905.66
2024-04-24T17:54:18.059Z,99889.25
2024-04-24T17:56:44.942Z,99891.03
2024-04-24T17:59:13.062Z,99894.50
2024-04-24T18:01:39.876Z,99896.22
2024-04-24T18:04:06.804Z,99885.81
2024-04-24T18:06:33.697Z,99888.41
2024-04-24T18:09:00.638Z,99885.81
2024-04-24T18:11:27.608Z,99889.28
2024-04-24T18:13:54.462Z,99890.22
2024-04-24T18:16:21.441Z,99887.72
2024-04-24T18:18:48.385Z,99889.53
2024-04-24T18:21:15.255Z,99886.19
2024-04-24T18:23:42.205Z,99882.81
2024-04-24T18:26:09.128Z,99899.25
2024-04-24T18:28:36.178Z,99898.44
2024-04-24T18:31:03.046Z,99891.56
2024-04-24T18:33:29.954Z,99896.75
2024-04-24T18:35:56.918Z,99899.38
2024-04-24T18:38:24.602Z,99897.66
2024-04-24T18:40:51.586Z,99895.06
2024-04-24T18:43:18.532Z,99890.75
2024-04-24T18:45:45.356Z,99896.81
2024-04-24T18:48:13.277Z,99883.88
2024-04-24T18:50:40.306Z,99876.13
2024-04-24T18:53:07.233Z,99875.25
2024-04-24T18:55:34.186Z,99880.47
2024-04-24T18:58:01.280Z,99884.81
2024-04-24T19:00:29.607Z,99875.31
2024-04-24T19:02:56.459Z,99876.19
2024-04-24T19:05:24.459Z,99875.34
2024-04-24T19:07:51.416Z,99871.06
2024-04-24T19:10:18.258Z,99872.81
2024-04-24T19:12:45.396Z,99868.47
2024-04-24T19:15:12.225Z,99874.53
2024-04-24T19:17:41.037Z,99872.81
2024-04-24T19:20:09.541Z,99868.53
2024-04-24T19:22:38.802Z,99867.69
2024-04-24T19:25:05.882Z,99863.41
2024-04-24T19:27:40.497Z,99864.28
2024-04-24T19:30:10.170Z,99865.16
2024-04-24T19:32:37.324Z,99866.91
2024-04-24T19:35:04.610Z,99855.69
2024-04-24T19:37:32.174Z,99855.72
2024-04-24T19:39:59.023Z,99857.44
2024-04-24T19:42:26.443Z,99848.84
2024-04-24T19:44:54.837Z,99840.22
2024-04-24T19:47:21.703Z,99849.72
2024-04-24T19:49:51.792Z,99847.13
2024-04-24T19:52:18.700Z,99846.28
2024-04-24T19:54:45.850Z,99845.47
2024-04-24T19:57:13.745Z,99842.91
2024-04-24T19:59:40.684Z,99838.56
2024-04-24T20:02:07.696Z,99837.72
2024-04-24T20:04:34.602Z,99836.84
2024-04-24T20:07:01.854Z,99839.44
2024-04-24T20:09:28.664Z,99841.19
2024-04-24T20:11:55.590Z,99834.28
2024-04-24T20:14:22.591Z,99834.28
2024-04-24T20:16:49.505Z,99842.91
2024-04-24T20:19:19.129Z,99843.72
2024-04-24T20:21:46.039Z,99841.13
2024-04-24T20:24:13.895Z,99842.84
2024-04-24T20:26:40.907Z,99839.38
2024-04-24T20:29:07.896Z,99837.63
2024-04-24T20:31:35.451Z,99835.88
2024-04-24T20:34:04.484Z,99830.66
2024-04-24T20:36:31.858Z,99830.63
2024-04-24T20:39:00.977Z,99822.00
2024-04-24T20:41:30.439Z,99821.09
2024-04-24T20:43:57.346Z,99821.06
2024-04-24T20:46:24.150Z,99818.47
2024-04-24T20:48:50.942Z,99802.94
2024-04-24T20:51:17.893Z,99802.84
2024-04-24T20:53:45.024Z,99806.25
2024-04-24T20:56:17.030Z,99801.06
2024-04-24T20:58:46.806Z,99792.44
2024-04-24T21:01:14.345Z,99794.13
2024-04-24T21:03:41.333Z,99792.38
2024-04-24T21:06:09.511Z,99784.59
2024-04-24T21:08:36.791Z,99784.50
2024-04-24T21:11:04.730Z,99785.31
2024-04-24T21:13:32.614Z,99794.69
2024-04-24T21:15:59.473Z,99790.34
2024-04-24T21:18:26.654Z,99786.00
2024-04-24T21:20:57.056Z,99779.94
2024-04-24T21:23:23.915Z,99782.47
2024-04-24T21:25:50.679Z,99779.00
2024-04-24T21:28:17.591Z,99776.38
2024-04-24T21:30:44.393Z,99778.91
2024-04-24T21:33:11.369Z,99770.28
2024-04-24T21:35:38.832Z,99777.91
2024-04-24T21:38:05.905Z,99767.53
2024-04-24T21:40:32.861Z,99769.19
2024-04-24T21:42:59.647Z,99770.03
2024-04-24T21:45:27.656Z,99762.25
2024-04-24T21:47:55.177Z,99758.78
2024-04-24T21:50:22.201Z,99765.59
2024-04-24T21:52:49.077Z,99752.66
2024-04-24T21:55:15.844Z,99758.63
2024-04-24T21:57:42.721Z,99749.16
2024-04-24T22:00:10.058Z,99749.94
2024-04-24T22:02:36.995Z,99743.84
2024-04-24T22:05:04.383Z,99736.09
2024-04-24T22:07:31.213Z,99741.22
2024-04-24T22:09:58.079Z,99729.16
2024-04-24T22:12:25.054Z,99737.69
2024-04-24T22:14:51.939Z,99734.22
2024-04-24T22:17:24.950Z,99731.59
2024-04-24T22:19:54.520Z,99722.09
2024-04-24T22:22:23.248Z,99721.22
2024-04-24T22:24:51.567Z,99718.59
2024-04-24T22:27:18.390Z,99719.44
2024-04-24T22:29:45.615Z,99711.66
2024-04-24T22:32:12.670Z,99715.03
2024-04-24T22:34:43.375Z,99706.44
2024-04-24T22:37:10.228Z,99708.97
2024-04-24T22:39:36.992Z,99710.63
2024-04-24T22:42:05.001Z,99699.41
2024-04-24T22:44:32.076Z,99696.81
2024-04-24T22:46:58.974Z,99695.94
2024-04-24T22:49:25.797Z,99695.88
2024-04-24T22:51:52.634Z,99693.28
2024-04-24T22:54:19.443Z,99686.38
2024-04-24T22:56:46.252Z,99688.94
2024-04-24T22:59:13.171Z,99695.72
2024-04-24T23:01:40.219Z,99690.53
2024-04-24T23:04:07.192Z,99688.81
2024-04-24T23:06:34.419Z,99681.91
2024-04-24T23:09:01.255Z,99686.16
2024-04-24T23:11:28.077Z,99681.00
2024-04-24T23:13:54.908Z,99678.38
2024-04-24T23:16:21.691Z,99675.75
2024-04-24T23:18:48.509Z,99675.72
2024-04-24T23:21:15.390Z,99665.44
2024-04-24T23:23:42.294Z,99665.41
2024-04-24T23:26:09.131Z,99661.09
2024-04-24T23:28:36.009Z,99661.94
2024-04-24T23:31:02.859Z,99661.09
2024-04-24T23:33:29.786Z,99666.22
2024-04-24T23:36:04.752Z,99654.19
2024-04-24T23:38:32.823Z,99655.03
2024-04-24T23:40:59.696Z,99646.47
2024-04-24T23:43:26.490Z,99643.81
2024-04-24T23:45:53.379Z,99648.06
2024-04-24T23:48:20.326Z,99638.69
2024-04-24T23:50:47.272Z,99631.88
2024-04-24T23:53:14.233Z,99633.69
2024-04-24T23:55:43.043Z,99626.06
2024-04-24T23:58:09.876Z,99627.81
